createdAt,value
2019-04-26T00:00:35.787Z,54.74
2019-04-26T00:03:14.192Z,54.66
2019-04-26T00:05:50.357Z,54.52
2019-04-26T00:08:26.251Z,54.38
2019-04-26T00:11:03.802Z,54.24
2019-04-26T00:14:03.006Z,54.20
2019-04-26T00:16:47.981Z,54.18
2019-04-26T00:19:23.927Z,54.17
2019-04-26T00:22:00.190Z,54.29
2019-04-26T00:24:36.566Z,54.30
2019-04-26T00:27:12.710Z,54.36
2019-04-26T00:29:49.087Z,54.48
2019-04-26T00:32:25.143Z,54.60
2019-04-26T00:35:01.212Z,54.72
2019-04-26T00:37:37.172Z,54.78
2019-04-26T00:40:14.418Z,54.91
2019-04-26T00:42:52.118Z,55.04
2019-04-26T00:45:30.972Z,55.16
2019-04-26T00:48:07.648Z,55.37
2019-04-26T00:50:44.988Z,55.44
2019-04-26T00:53:22.204Z,55.67
2019-04-26T00:56:00.141Z,56.01
2019-04-26T00:58:37.208Z,56.23
2019-04-26T01:01:15.088Z,56.68
2019-04-26T01:03:52.090Z,56.92
2019-04-26T01:06:29.685Z,57.29
2019-04-26T01:09:07.076Z,57.62
2019-04-26T01:11:44.596Z,57.97
2019-04-26T01:14:20.480Z,58.42
2019-04-26T01:16:56.443Z,58.63
2019-04-26T01:19:33.425Z,58.87
2019-04-26T01:22:12.274Z,59.05
2019-04-26T01:24:49.985Z,59.24
2019-04-26T01:27:28.442Z,59.63
2019-04-26T01:30:10.178Z,60.00
2019-04-26T01:32:46.954Z,60.33
2019-04-26T01:35:24.173Z,60.64
2019-04-26T01:38:02.758Z,60.70
2019-04-26T01:40:42.483Z,61.02
2019-04-26T01:43:21.666Z,61.13
2019-04-26T01:46:02.914Z,61.16
2019-04-26T01:49:01.206Z,61.32
2019-04-26T01:51:48.931Z,61.43
2019-04-26T01:54:29.940Z,61.43
2019-04-26T01:57:06.472Z,61.59
2019-04-26T01:59:46.010Z,61.90
2019-04-26T02:02:32.617Z,62.07
2019-04-26T02:05:10.622Z,62.21
2019-04-26T02:07:46.900Z,62.33
2019-04-26T02:10:26.556Z,62.55
2019-04-26T02:13:02.691Z,62.77
2019-04-26T02:15:38.957Z,62.75
2019-04-26T02:18:14.919Z,62.76
2019-04-26T02:20:54.861Z,62.85
2019-04-26T02:23:38.597Z,62.75
2019-04-26T02:26:34.849Z,62.80
2019-04-26T02:29:13.963Z,62.79
2019-04-26T02:31:54.627Z,62.79
2019-04-26T02:34:35.227Z,62.71
2019-04-26T02:37:13.280Z,62.65
2019-04-26T02:39:49.665Z,62.80
2019-04-26T02:42:30.957Z,62.59
2019-04-26T02:45:20.840Z,62.42
2019-04-26T02:48:16.362Z,62.31
2019-04-26T02:50:56.823Z,62.21
2019-04-26T02:53:47.510Z,62.19
2019-04-26T02:56:30.297Z,62.19
2019-04-26T02:59:12.334Z,62.13
2019-04-26T03:01:50.694Z,62.07
2019-04-26T03:04:28.929Z,62.12
2019-04-26T03:07:09.007Z,62.21
2019-04-26T03:09:48.044Z,62.26
2019-04-26T03:12:26.965Z,62.15
2019-04-26T03:15:14.058Z,62.15
2019-04-26T03:17:56.927Z,62.08
2019-04-26T03:20:40.053Z,61.97
2019-04-26T03:23:20.193Z,62.03
2019-04-26T03:26:17.220Z,61.98
2019-04-26T03:29:02.090Z,62.02
2019-04-26T03:31:53.406Z,62.04
2019-04-26T03:34:43.367Z,62.12
2019-04-26T03:37:40.469Z,62.07
2019-04-26T03:40:38.945Z,62.06
2019-04-26T03:43:27.232Z,62.11
2019-04-26T03:46:24.219Z,62.14
2019-04-26T03:49:23.840Z,62.13
2019-04-26T03:52:19.562Z,61.98
2019-04-26T03:55:02.568Z,61.96
2019-04-26T03:57:47.025Z,61.90
2019-04-26T04:00:29.638Z,61.79
2019-04-26T04:03:26.835Z,61.58
2019-04-26T04:06:05.104Z,61.29
2019-04-26T04:08:48.164Z,60.92
2019-04-26T04:11:40.850Z,60.57
2019-04-26T04:14:34.964Z,58.45
2019-04-26T04:17:15.417Z,54.92
2019-04-26T04:20:13.710Z,51.64
2019-04-26T04:23:18.446Z,49.17
2019-04-26T04:25:56.365Z,46.29
2019-04-26T04:28:36.063Z,44.38
2019-04-26T04:31:35.254Z,42.95
2019-04-26T04:34:32.242Z,42.10
2019-04-26T04:37:11.151Z,41.11
2019-04-26T04:39:59.606Z,40.55
2019-04-26T04:42:58.414Z,40.65
2019-04-26T04:46:10.674Z,40.90
2019-04-26T04:49:25.530Z,41.93
2019-04-26T04:52:13.300Z,44.70
2019-04-26T04:55:06.769Z,47.59
2019-04-26T04:57:53.147Z,49.64
2019-04-26T05:00:56.061Z,50.94
2019-04-26T05:03:47.025Z,52.59
2019-04-26T05:06:35.809Z,53.50
2019-04-26T05:09:17.106Z,54.15
2019-04-26T05:12:07.943Z,54.86
2019-04-26T05:15:04.661Z,55.27
2019-04-26T05:17:43.475Z,55.28
2019-04-26T05:20:34.904Z,55.61
2019-04-26T05:23:42.541Z,55.68
2019-04-26T05:26:31.556Z,55.63
2019-04-26T05:29:42.123Z,55.63
2019-04-26T05:32:20.958Z,55.75
2019-04-26T05:35:06.029Z,55.74
2019-04-26T05:38:17.998Z,55.87
2019-04-26T05:41:03.195Z,55.60
2019-04-26T05:44:18.571Z,55.64
2019-04-26T05:47:31.094Z,55.42
2019-04-26T05:50:38.785Z,55.49
2019-04-26T05:53:44.755Z,55.29
2019-04-26T05:56:40.158Z,55.29
2019-04-26T05:59:46.589Z,55.07
2019-04-26T06:02:32.622Z,54.65
2019-04-26T06:05:25.183Z,54.35
2019-04-26T06:08:30.660Z,53.88
2019-04-26T06:11:02.705Z,53.97
2019-04-26T06:14:00.177Z,53.75
2019-04-26T06:16:49.316Z,54.08
2019-04-26T06:19:57.327Z,53.77
2019-04-26T06:22:36.242Z,53.32
2019-04-26T06:25:31.348Z,53.26
2019-04-26T06:28:20.768Z,53.14
2019-04-26T06:31:03.493Z,53.00
2019-04-26T06:33:42.469Z,52.61
2019-04-26T06:36:23.139Z,52.43
2019-04-26T06:39:21.407Z,52.16
2019-04-26T06:42:09.600Z,52.06
2019-04-26T06:45:21.449Z,51.86
2019-04-26T06:48:23.014Z,51.16
2019-04-26T06:51:24.668Z,52.00
2019-04-26T06:54:07.492Z,52.00
2019-04-26T06:57:11.500Z,51.88
2019-04-26T06:59:57.418Z,51.47
2019-04-26T07:03:08.472Z,51.60
2019-04-26T07:05:47.808Z,51.21
2019-04-26T07:08:38.921Z,50.70
2019-04-26T07:11:31.466Z,50.30
2019-04-26T07:14:19.610Z,49.58
2019-04-26T07:17:04.574Z,49.67
2019-04-26T07:20:04.399Z,49.13
2019-04-26T07:23:19.556Z,48.83
2019-04-26T07:26:08.621Z,48.70
2019-04-26T07:29:13.770Z,47.94
2019-04-26T07:32:09.524Z,47.99
2019-04-26T07:35:02.711Z,47.79
2019-04-26T07:38:06.950Z,47.85
2019-04-26T07:41:15.889Z,48.14
2019-04-26T07:44:14.169Z,48.46
2019-04-26T07:47:03.084Z,47.97
2019-04-26T07:50:11.566Z,47.43
2019-04-26T07:53:17.827Z,47.67
2019-04-26T07:56:13.582Z,47.23
2019-04-26T07:59:09.355Z,47.92
2019-04-26T08:02:24.024Z,47.69
2019-04-26T08:05:05.753Z,48.34
2019-04-26T08:07:45.203Z,47.92
2019-04-26T08:10:23.411Z,46.80
2019-04-26T08:13:06.097Z,46.08
2019-04-26T08:16:06.726Z,46.12
2019-04-26T08:18:51.163Z,46.26
2019-04-26T08:21:32.036Z,45.98
2019-04-26T08:24:18.980Z,46.14
2019-04-26T08:27:18.788Z,45.93
2019-04-26T08:29:50.608Z,45.51
2019-04-26T08:32:32.061Z,45.83
2019-04-26T08:35:16.127Z,46.50
2019-04-26T08:37:52.949Z,46.61
2019-04-26T08:40:31.424Z,46.06
2019-04-26T08:43:10.882Z,45.98
2019-04-26T08:46:02.850Z,45.28
2019-04-26T08:48:47.698Z,45.61
2019-04-26T08:51:25.190Z,45.72
2019-04-26T08:54:05.752Z,45.59
2019-04-26T08:56:44.666Z,46.11
2019-04-26T08:59:26.665Z,45.08
2019-04-26T09:02:05.920Z,44.73
2019-04-26T09:04:45.644Z,44.66
2019-04-26T09:07:31.401Z,44.71
2019-04-26T09:10:11.282Z,44.45
2019-04-26T09:12:49.373Z,44.31
2019-04-26T09:15:43.271Z,44.27
2019-04-26T09:18:20.353Z,44.59
2019-04-26T09:20:56.608Z,44.03
2019-04-26T09:23:52.183Z,43.21
2019-04-26T09:26:32.545Z,42.82
2019-04-26T09:29:26.457Z,43.38
2019-04-26T09:32:16.282Z,43.52
2019-04-26T09:34:52.311Z,42.97
2019-04-26T09:37:28.462Z,42.64
2019-04-26T09:40:10.545Z,43.36
2019-04-26T09:42:48.932Z,43.34
2019-04-26T09:45:35.796Z,42.73
2019-04-26T09:48:13.279Z,42.00
2019-04-26T09:50:50.875Z,41.45
2019-04-26T09:53:26.839Z,42.21
2019-04-26T09:56:02.797Z,41.42
2019-04-26T09:58:38.743Z,41.11
2019-04-26T10:01:14.712Z,41.03
2019-04-26T10:03:51.790Z,41.19
2019-04-26T10:06:29.729Z,40.76
2019-04-26T10:09:10.353Z,40.24
2019-04-26T10:11:54.814Z,39.49
2019-04-26T10:14:32.411Z,39.76
2019-04-26T10:17:15.795Z,40.16
2019-04-26T10:19:52.170Z,40.40
2019-04-26T10:22:29.690Z,39.20
2019-04-26T10:25:16.135Z,38.07
2019-04-26T10:27:46.007Z,38.82
2019-04-26T10:30:22.384Z,38.96
2019-04-26T10:33:02.093Z,38.67
2019-04-26T10:35:36.033Z,38.50
2019-04-26T10:38:13.134Z,37.45
2019-04-26T10:40:49.077Z,37.66
2019-04-26T10:43:25.032Z,37.08
2019-04-26T10:46:00.980Z,37.06
2019-04-26T10:48:36.948Z,37.02
2019-04-26T10:51:14.433Z,37.10
2019-04-26T10:53:54.889Z,36.82
2019-04-26T10:56:35.359Z,35.80
2019-04-26T10:59:18.808Z,35.58
2019-04-26T11:01:54.850Z,35.06
2019-04-26T11:04:30.985Z,34.72
2019-04-26T11:07:07.067Z,34.81
2019-04-26T11:09:43.131Z,34.72
2019-04-26T11:12:20.367Z,34.44
2019-04-26T11:14:57.032Z,33.89
2019-04-26T11:17:33.251Z,33.23
2019-04-26T11:20:10.551Z,33.20
2019-04-26T11:22:47.112Z,32.56
2019-04-26T11:25:24.625Z,32.79
2019-04-26T11:28:00.762Z,33.02
2019-04-26T11:30:36.710Z,32.86
2019-04-26T11:33:12.866Z,32.07
2019-04-26T11:35:48.936Z,30.99
2019-04-26T11:38:26.883Z,31.19
2019-04-26T11:41:06.328Z,31.07
2019-04-26T11:43:40.079Z,30.58
2019-04-26T11:46:16.347Z,30.87
2019-04-26T11:48:58.891Z,30.90
2019-04-26T11:51:29.992Z,30.75
2019-04-26T11:54:05.961Z,29.95
2019-04-26T11:56:41.915Z,29.55
2019-04-26T11:59:17.858Z,30.58
2019-04-26T12:01:53.815Z,30.95
2019-04-26T12:04:31.325Z,30.15
2019-04-26T12:07:11.975Z,31.00
2019-04-26T12:09:49.501Z,31.06
2019-04-26T12:12:25.721Z,30.39
2019-04-26T12:15:03.876Z,29.61
2019-04-26T12:17:40.942Z,28.66
2019-04-26T12:20:16.889Z,29.61
2019-04-26T12:22:52.846Z,29.59
2019-04-26T12:25:31.079Z,28.89
2019-04-26T12:28:07.384Z,29.04
2019-04-26T12:30:43.480Z,28.53
2019-04-26T12:33:19.425Z,28.65
2019-04-26T12:35:57.063Z,28.77
2019-04-26T12:38:33.089Z,29.00
2019-04-26T12:41:11.418Z,28.68
2019-04-26T12:43:46.628Z,28.02
2019-04-26T12:46:36.205Z,28.16
2019-04-26T12:49:12.276Z,28.54
2019-04-26T12:51:48.838Z,28.51
2019-04-26T12:54:25.923Z,29.21
2019-04-26T12:57:05.823Z,28.87
2019-04-26T12:59:44.453Z,29.23
2019-04-26T13:02:20.970Z,29.37
2019-04-26T13:04:54.864Z,29.26
2019-04-26T13:07:30.833Z,29.47
2019-04-26T13:10:12.519Z,30.14
2019-04-26T13:12:53.176Z,30.56
2019-04-26T13:15:51.799Z,30.83
2019-04-26T13:18:27.941Z,31.21
2019-04-26T13:21:04.379Z,31.81
2019-04-26T13:23:40.565Z,31.63
2019-04-26T13:26:16.524Z,31.36
2019-04-26T13:28:56.977Z,32.21
2019-04-26T13:31:31.723Z,32.73
2019-04-26T13:34:08.076Z,32.23
2019-04-26T13:36:44.018Z,32.36
2019-04-26T13:39:22.393Z,32.40
2019-04-26T13:42:04.512Z,32.53
2019-04-26T13:44:56.473Z,32.32
2019-04-26T13:47:35.063Z,32.61
2019-04-26T13:50:15.463Z,32.25
2019-04-26T13:52:51.402Z,32.61
2019-04-26T13:55:29.440Z,32.38
2019-04-26T13:58:06.410Z,31.98
2019-04-26T14:00:43.566Z,32.00
2019-04-26T14:03:20.154Z,31.70
2019-04-26T14:05:56.098Z,32.08
2019-04-26T14:08:32.067Z,32.75
2019-04-26T14:11:08.112Z,32.81
2019-04-26T14:13:44.081Z,33.09
2019-04-26T14:16:21.166Z,33.52
2019-04-26T14:18:57.736Z,32.67
2019-04-26T14:21:34.830Z,32.52
2019-04-26T14:24:24.065Z,32.70
2019-04-26T14:27:04.143Z,32.01
2019-04-26T14:29:40.196Z,31.75
2019-04-26T14:32:16.155Z,31.85
2019-04-26T14:34:52.212Z,31.99
2019-04-26T14:37:29.183Z,32.11
2019-04-26T14:40:16.607Z,32.05
2019-04-26T14:42:47.201Z,32.41
2019-04-26T14:45:24.139Z,31.92
2019-04-26T14:48:03.982Z,31.98
2019-04-26T14:50:38.178Z,32.05
2019-04-26T14:53:14.071Z,32.16
2019-04-26T14:55:51.188Z,32.70
2019-04-26T14:58:30.092Z,33.04
2019-04-26T15:01:07.021Z,33.07
2019-04-26T15:04:00.586Z,33.06
2019-04-26T15:06:38.197Z,33.25
2019-04-26T15:09:19.820Z,33.38
2019-04-26T15:11:58.610Z,33.11
2019-04-26T15:14:31.221Z,33.19
2019-04-26T15:17:07.346Z,33.07
2019-04-26T15:19:45.919Z,32.97
2019-04-26T15:22:20.988Z,33.18
2019-04-26T15:24:57.266Z,33.13
2019-04-26T15:27:36.272Z,32.83
2019-04-26T15:30:11.326Z,33.12
2019-04-26T15:32:47.273Z,33.40
2019-04-26T15:35:23.325Z,33.47
2019-04-26T15:38:01.437Z,33.46
2019-04-26T15:40:42.480Z,33.26
2019-04-26T15:43:20.121Z,33.02
2019-04-26T15:46:14.031Z,33.39
2019-04-26T15:49:09.523Z,33.65
2019-04-26T15:51:46.079Z,33.78
2019-04-26T15:54:23.032Z,33.45
2019-04-26T15:56:59.009Z,33.73
2019-04-26T15:59:34.979Z,34.21
2019-04-26T16:02:12.440Z,34.30
2019-04-26T16:04:51.365Z,34.33
2019-04-26T16:07:28.793Z,34.38
2019-04-26T16:10:04.739Z,34.48
2019-04-26T16:12:42.249Z,34.55
2019-04-26T16:15:18.279Z,34.72
2019-04-26T16:17:54.238Z,35.06
2019-04-26T16:20:37.414Z,35.34
2019-04-26T16:23:09.016Z,35.67
2019-04-26T16:25:44.973Z,35.98
2019-04-26T16:28:26.570Z,36.26
2019-04-26T16:31:22.602Z,36.72
2019-04-26T16:34:04.105Z,36.85
2019-04-26T16:36:43.849Z,37.17
2019-04-26T16:39:16.089Z,37.53
2019-04-26T16:41:52.495Z,37.65
2019-04-26T16:44:31.411Z,38.02
2019-04-26T16:47:07.439Z,38.36
2019-04-26T16:49:46.250Z,38.52
2019-04-26T16:52:21.110Z,38.77
2019-04-26T16:55:02.323Z,38.93
2019-04-26T16:57:35.167Z,39.07
2019-04-26T17:00:15.800Z,39.29
2019-04-26T17:02:49.814Z,39.59
2019-04-26T17:05:46.904Z,39.76
2019-04-26T17:08:05.144Z,39.96
2019-04-26T17:10:42.041Z,40.14
2019-04-26T17:13:18.050Z,40.37
2019-04-26T17:15:58.235Z,40.48
2019-04-26T17:18:32.391Z,40.65
2019-04-26T17:21:08.461Z,40.77
2019-04-26T17:23:52.984Z,41.05
2019-04-26T17:26:36.437Z,41.24
2019-04-26T17:29:11.835Z,41.52
2019-04-26T17:31:47.728Z,41.73
2019-04-26T17:34:28.860Z,42.09
2019-04-26T17:37:02.474Z,42.27
2019-04-26T17:39:40.681Z,42.39
2019-04-26T17:42:16.705Z,42.63
2019-04-26T17:44:52.622Z,42.82
2019-04-26T17:47:34.650Z,43.18
2019-04-26T17:50:08.529Z,43.48
2019-04-26T17:52:44.447Z,43.92
2019-04-26T17:55:20.463Z,44.24
2019-04-26T17:58:09.733Z,44.58
2019-04-26T18:00:45.580Z,44.79
2019-04-26T18:03:14.850Z,45.15
2019-04-26T18:05:56.988Z,45.53
2019-04-26T18:08:41.061Z,45.91
2019-04-26T18:11:04.673Z,46.21
2019-04-26T18:13:40.711Z,46.45
2019-04-26T18:16:17.748Z,46.65
2019-04-26T18:19:13.073Z,46.91
2019-04-26T18:22:08.913Z,47.09
2019-04-26T18:24:44.978Z,47.30
2019-04-26T18:27:20.890Z,47.67
2019-04-26T18:29:59.810Z,47.94
2019-04-26T18:32:42.132Z,48.22
2019-04-26T18:35:16.642Z,48.29
2019-04-26T18:37:50.728Z,48.34
2019-04-26T18:40:26.682Z,48.40
2019-04-26T18:43:03.456Z,48.48
2019-04-26T18:45:39.556Z,48.45
2019-04-26T18:48:15.475Z,48.54
2019-04-26T18:50:51.383Z,48.67
2019-04-26T18:53:39.390Z,48.76
2019-04-26T18:56:14.036Z,48.75
2019-04-26T18:58:51.552Z,48.81
2019-04-26T19:01:27.551Z,48.81
2019-04-26T19:04:09.871Z,48.75
2019-04-26T19:06:42.323Z,48.69
2019-04-26T19:09:21.230Z,48.59
2019-04-26T19:11:57.602Z,48.42
2019-04-26T19:14:49.753Z,48.24
2019-04-26T19:17:33.832Z,48.03
2019-04-26T19:20:11.643Z,47.88
2019-04-26T19:22:50.397Z,47.91
2019-04-26T19:25:29.857Z,47.89
2019-04-26T19:28:08.189Z,47.85
2019-04-26T19:30:49.514Z,47.95
2019-04-26T19:33:21.806Z,47.88
2019-04-26T19:35:57.808Z,47.85
2019-04-26T19:38:33.816Z,47.96
2019-04-26T19:41:09.728Z,47.99
2019-04-26T19:43:46.287Z,48.04
2019-04-26T19:46:25.278Z,48.04
2019-04-26T19:49:19.060Z,48.14
2019-04-26T19:52:14.856Z,48.30
2019-04-26T19:54:53.029Z,48.45
2019-04-26T19:57:47.734Z,48.64
2019-04-26T20:00:25.073Z,48.82
2019-04-26T20:03:01.642Z,48.93
2019-04-26T20:05:40.593Z,49.05
2019-04-26T20:08:15.324Z,49.17
2019-04-26T20:10:52.085Z,49.40
2019-04-26T20:13:28.063Z,49.64
2019-04-26T20:16:06.053Z,49.88
2019-04-26T20:18:42.134Z,50.01
2019-04-26T20:21:18.070Z,50.07
2019-04-26T20:23:54.644Z,50.27
2019-04-26T20:26:31.500Z,50.54
2019-04-26T20:29:10.189Z,50.86
2019-04-26T20:31:47.832Z,50.97
2019-04-26T20:34:23.811Z,51.36
2019-04-26T20:37:01.391Z,51.37
2019-04-26T20:39:38.529Z,51.94
2019-04-26T20:42:14.593Z,52.12
2019-04-26T20:44:53.111Z,52.21
2019-04-26T20:47:28.240Z,52.39
2019-04-26T20:50:05.715Z,52.65
2019-04-26T20:52:41.692Z,52.79
2019-04-26T20:55:17.583Z,53.12
2019-04-26T20:57:53.604Z,53.54
2019-04-26T21:00:31.518Z,53.32
2019-04-26T21:03:20.135Z,53.52
2019-04-26T21:05:46.619Z,53.68
2019-04-26T21:08:25.770Z,53.80
2019-04-26T21:11:01.705Z,53.78
2019-04-26T21:13:38.251Z,54.04
2019-04-26T21:16:15.564Z,54.20
2019-04-26T21:18:52.352Z,54.37
2019-04-26T21:21:28.481Z,54.61
2019-04-26T21:24:05.843Z,54.69
2019-04-26T21:26:46.632Z,55.07
2019-04-26T21:29:28.324Z,55.05
2019-04-26T21:32:08.886Z,55.18
2019-04-26T21:34:50.487Z,55.22
2019-04-26T21:37:28.487Z,55.30
2019-04-26T21:40:07.345Z,55.45
2019-04-26T21:42:45.074Z,55.36
2019-04-26T21:45:28.463Z,55.21
2019-04-26T21:48:02.669Z,55.18
2019-04-26T21:50:39.051Z,54.82
2019-04-26T21:53:14.868Z,54.66
2019-04-26T21:55:50.818Z,54.60
2019-04-26T21:58:26.781Z,54.79
2019-04-26T22:01:04.467Z,54.93
2019-04-26T22:03:47.413Z,54.73
2019-04-26T22:06:24.487Z,54.67
2019-04-26T22:09:02.545Z,54.82
2019-04-26T22:11:38.506Z,54.89
2019-04-26T22:14:20.052Z,54.89
2019-04-26T22:17:02.318Z,54.96
2019-04-26T22:19:49.862Z,54.94
2019-04-26T22:22:27.354Z,54.99
2019-04-26T22:25:05.043Z,55.17
2019-04-26T22:27:40.951Z,55.17
2019-04-26T22:30:22.725Z,55.04
2019-04-26T22:32:58.532Z,55.13
2019-04-26T22:35:34.601Z,55.16
2019-04-26T22:38:10.561Z,55.21
2019-04-26T22:40:48.534Z,55.32
2019-04-26T22:43:28.528Z,55.55
2019-04-26T22:46:14.106Z,55.82
2019-04-26T22:48:54.645Z,55.99
2019-04-26T22:51:33.514Z,55.71
2019-04-26T22:54:07.284Z,55.88
2019-04-26T22:56:43.830Z,55.76
2019-04-26T22:59:20.850Z,55.89
2019-04-26T23:01:56.795Z,55.93
2019-04-26T23:04:33.056Z,56.50
2019-04-26T23:07:10.859Z,56.55
2019-04-26T23:09:51.777Z,56.71
2019-04-26T23:12:33.419Z,57.08
2019-04-26T23:15:30.142Z,57.22
2019-04-26T23:18:14.014Z,57.39
2019-04-26T23:20:51.103Z,57.50
2019-04-26T23:23:27.044Z,57.53
2019-04-26T23:26:06.304Z,57.83
2019-04-26T23:28:40.915Z,57.92
2019-04-26T23:31:16.861Z,58.12
2019-04-26T23:33:53.939Z,58.44
2019-04-26T23:36:30.112Z,58.57
2019-04-26T23:39:07.717Z,58.77
2019-04-26T23:41:45.303Z,59.27
2019-04-26T23:44:23.067Z,59.57
2019-04-26T23:47:01.209Z,59.63
2019-04-26T23:49:36.654Z,60.31
2019-04-26T23:52:14.569Z,60.91
2019-04-26T23:54:50.402Z,60.99
2019-04-26T23:57:27.400Z,61.18
